Latest Weather Observations for Taree Airport

IDN60801

Issued at 10:04 pm EDT Sunday 21 December 2014 (issued every 30 minutes, with the page automatically refreshed every 10 minutes)

About weather observations | Map of weather stations | Latest weather observations for NSW | Other Formats
Station Details ID: 060141 Name: TAREE AIRPORT AWS Lat: -31.89 Lon: 152.51 Height: 8.0 m
Data from the previous 72 hours. | See also: Recent months at Taree Airport
Date/Time
EDT
Temp
°C
App
Temp
°C
Dew
Point
Rel
Hum
%
Delta-T
°C
Wind Press
QNH
hPa
Press
MSL
hPa
Rain
since 9 am
mm
Dir
 
Spd
km/h
Gust
km/h
Spd
kts
Gust
kts
21/09:30pm 20.7 20.3 16.3 76 2.6 NE 13 17 7 9 1017.6 1017.6 0.0
21/09:00pm 20.6 20.3 16.4 77 2.5 NE 13 15 7 8 1017.3 1017.3 0.0
21/08:30pm 21.2 21.0 16.6 75 2.8 ENE 13 17 7 9 1017.0 1017.0 0.0
21/08:00pm 22.0 21.0 16.7 72 3.2 ENE 17 28 9 15 1016.7 1016.6 0.0
21/07:30pm 22.9 21.4 16.7 68 3.8 ENE 20 26 11 14 1016.5 1016.4 0.0
21/07:00pm 23.7 21.0 16.7 65 4.3 ENE 26 32 14 17 1016.2 1016.1 0.0
21/06:30pm 24.3 21.3 16.8 63 4.6 ENE 28 35 15 19 1015.9 1015.8 0.0
21/06:00pm 25.0 21.3 17.0 61 4.9 ENE 32 37 17 20 1015.6 1015.5 0.0
21/05:30pm 25.3 21.7 17.2 61 5.0 ENE 32 41 17 22 1015.5 1015.4 0.0
21/05:00pm 25.7 22.3 17.6 61 5.1 ENE 32 41 17 22 1015.5 1015.4 0.0
21/04:30pm 25.6 21.5 17.3 60 5.2 ENE 35 48 19 26 1015.5 1015.4 0.0
21/04:00pm 26.4 23.3 17.5 58 5.6 ENE 30 39 16 21 1015.6 1015.5 0.0
21/03:30pm 26.9 24.3 18.7 60 5.2 ENE 30 41 16 22 1015.8 1015.7 0.0
21/03:04pm 26.3 23.5 18.2 61 5.1 ENE 30 48 16 26 1016.0 1015.9 0.0
21/03:00pm 26.9 23.8 18.5 60 5.4 ENE 32 48 17 26 1016.0 1015.9 0.0
21/02:30pm 27.3 24.7 18.6 59 5.6 ENE 30 41 16 22 1016.2 1016.1 0.0
21/02:00pm 26.9 24.2 18.5 60 5.4 ENE 30 41 16 22 1016.3 1016.2 0.0
21/01:30pm 27.2 24.5 19.3 62 5.1 ENE 32 41 17 22 1016.5 1016.4 0.0
21/01:00pm 27.1 25.1 19.2 62 5.1 ENE 28 39 15 21 1016.6 1016.5 0.0
21/12:30pm 26.0 23.7 18.4 63 4.8 E 28 37 15 20 1017.1 1017.1 0.0
21/12:00pm 25.3 23.4 17.7 62 4.8 E 24 33 13 18 1017.4 1017.4 0.0
21/11:30am 26.3 25.6 16.3 54 6.2 NE 15 26 8 14 1017.6 1017.6 0.0
21/11:00am 26.1 25.7 17.2 58 5.5 NE 15 20 8 11 1017.8 1017.8 0.0
21/10:30am 25.9 25.3 16.7 57 5.7 NE 15 26 8 14 1017.8 1017.8 0.0
21/10:00am 24.8 25.1 17.0 62 4.8 NNE 11 17 6 9 1018.0 1018.0 0.0
21/09:30am 23.6 22.7 15.9 62 4.7 NNE 15 22 8 12 1018.2 1018.2 0.0
21/09:00am 23.3 23.4 16.4 65 4.2 NNE 11 17 6 9 1018.3 1018.3 0.0
21/08:30am 23.0 23.5 16.5 67 4.0 NE 9 13 5 7 1018.3 1018.3 0.0
21/08:00am 22.1 22.9 15.9 68 3.7 NE 6 11 3 6 1018.2 1018.2 0.0
21/07:30am 20.8 23.0 16.6 77 2.5 CALM 0 7 0 4 1017.8 1017.8 0.0
21/07:00am 19.0 21.2 16.4 85 1.6 CALM 0 0 0 0 1017.7 1017.7 0.0
21/06:30am 17.6 19.8 16.5 93 0.7 CALM 0 0 0 0 1017.4 1017.4 0.0
21/06:00am 16.1 17.7 15.0 93 0.6 CALM 0 0 0 0 1017.1 1017.1 0.0
21/05:30am 15.9 17.3 14.3 90 0.9 CALM 0 0 0 0 1016.7 1016.6 0.0
21/05:00am 16.5 18.1 14.9 90 0.9 CALM 0 0 0 0 1016.6 1016.5 0.0
21/04:30am 17.1 18.8 15.3 89 1.0 CALM 0 0 0 0 1016.6 1016.5 0.0
21/04:00am 17.2 18.9 15.2 88 1.2 CALM 0 0 0 0 1016.6 1016.5 0.0
21/03:30am 17.9 19.7 15.5 86 1.4 CALM 0 0 0 0 1016.7 1016.6 0.0
21/03:00am 18.0 19.8 15.4 85 1.5 CALM 0 0 0 0 1016.8 1016.8 0.0
21/02:30am 18.3 20.0 15.2 82 1.8 CALM 0 0 0 0 1017.0 1017.0 0.0
21/02:00am 18.0 19.6 14.9 82 1.8 CALM 0 0 0 0 1017.4 1017.4 0.0
21/01:30am 18.8 20.5 15.3 80 2.1 CALM 0 0 0 0 1017.7 1017.7 0.0
21/01:00am 19.8 21.8 15.9 78 2.3 CALM 0 0 0 0 1017.9 1017.9 0.0
21/12:30am 20.0 21.8 15.4 75 2.7 CALM 0 0 0 0 1018.1 1018.1 0.0
21/12:00am 20.4 22.4 16.0 76 2.6 CALM 0 0 0 0 1018.4 1018.4 0.0
 
Date/Time
EDT
Temp
°C
App
Temp
°C
Dew
Point
Rel
Hum
%
Delta-T
°C
Wind Press
QNH
hPa
Press
MSL
hPa
Rain
since 9 am
mm
Dir
 
Spd
km/h
Gust
km/h
Spd
kts
Gust
kts
20/11:30pm 20.4 22.1 15.2 72 3.1 CALM 0 0 0 0 1018.6 1018.6 0.0
20/11:00pm 20.8 22.6 15.6 72 3.1 CALM 0 0 0 0 1018.7 1018.7 0.0
20/10:30pm 20.7 21.9 14.8 69 3.5 NNE 2 7 1 4 1018.7 1018.7 0.0
20/10:00pm 21.0 21.8 14.9 68 3.6 NE 4 7 2 4 1018.7 1018.7 0.0
20/09:30pm 21.2 21.7 15.1 68 3.6 NE 6 7 3 4 1018.5 1018.5 0.0
20/09:00pm 21.3 21.1 14.7 66 3.9 E 9 11 5 6 1018.2 1018.2 0.0
20/08:30pm 21.5 21.3 14.6 65 4.1 E 9 13 5 7 1017.8 1017.8 0.0
20/08:00pm 21.5 21.2 14.4 64 4.1 ESE 9 13 5 7 1017.3 1017.3 0.0
20/07:30pm 21.7 21.4 14.4 63 4.3 ESE 9 13 5 7 1017.1 1017.1 0.0
20/07:00pm 21.9 21.2 14.3 62 4.4 ESE 11 17 6 9 1016.6 1016.5 0.0
20/06:30pm 22.0 20.9 14.4 62 4.5 E 13 19 7 10 1016.1 1016.0 0.0
20/06:00pm 22.2 21.1 14.3 61 4.6 ESE 13 19 7 10 1015.5 1015.4 0.0
20/05:30pm 22.3 21.1 13.9 59 4.9 ESE 13 17 7 9 1015.3 1015.2 0.0
20/05:00pm 22.7 20.7 14.0 58 5.1 E 17 20 9 11 1015.2 1015.1 0.0
20/04:30pm 22.9 20.9 13.9 57 5.3 ESE 17 26 9 14 1015.2 1015.1 0.0
20/04:00pm 23.1 20.9 14.4 58 5.1 E 19 26 10 14 1015.4 1015.3 0.0
20/03:30pm 23.3 21.0 14.0 56 5.4 SE 19 30 10 16 1015.7 1015.6 0.0
20/03:00pm 23.4 20.4 13.8 54 5.6 SE 22 33 12 18 1015.9 1015.8 0.0
20/02:30pm 23.5 20.6 13.9 55 5.6 ESE 22 30 12 16 1016.1 1016.0 0.0
20/02:00pm 24.3 21.4 14.1 53 6.0 SE 22 32 12 17 1016.2 1016.1 0.0
20/01:30pm 24.1 22.5 15.1 57 5.4 ESE 17 28 9 15 1016.6 1016.5 0.0
20/01:00pm 22.9 20.6 13.1 54 5.6 ESE 17 28 9 15 1017.0 1017.0 0.0
20/12:30pm 23.8 21.7 13.6 52 5.9 SE 17 24 9 13 1017.3 1017.3 0.0
20/12:00pm 22.9 21.4 13.1 54 5.6 ESE 13 22 7 12 1017.7 1017.7 0.0
20/11:30am 22.7 21.6 13.2 55 5.5 SE 11 17 6 9 1017.8 1017.8 0.0
20/11:00am 22.9 21.9 13.4 55 5.5 SE 11 20 6 11 1017.8 1017.8 0.0
20/10:30am 22.2 21.2 13.5 57 5.0 SE 11 19 6 10 1017.9 1017.9 0.0
20/10:00am 21.8 21.2 13.4 59 4.8 S 9 13 5 7 1017.8 1017.8 0.0
20/09:30am 21.8 21.2 13.4 59 4.8 SSW 9 17 5 9 1017.7 1017.7 0.0
20/09:00am 21.4 20.4 13.3 60 4.6 SSW 11 17 6 9 1017.6 1017.6 0.0
20/08:30am 21.1 20.1 13.5 62 4.4 SW 11 15 6 8 1017.5 1017.5 0.0
20/08:00am 20.6 19.9 13.3 63 4.2 WSW 9 15 5 8 1017.4 1017.4 0.0
20/07:30am 19.9 19.4 13.8 68 3.5 W 9 11 5 6 1017.1 1017.1 0.0
20/07:00am 19.0 18.1 13.8 72 3.0 NW 11 13 6 7 1016.7 1016.6 0.0
20/06:30am 18.7 18.3 14.0 74 2.7 NW 9 11 5 6 1016.5 1016.4 0.0
20/06:00am 18.4 17.5 13.7 74 2.7 NW 11 13 6 7 1016.3 1016.2 0.0
20/05:30am 18.7 18.7 13.6 72 2.9 WNW 6 9 3 5 1016.0 1015.9 0.0
20/05:00am 19.0 20.3 14.1 73 2.8 CALM 0 0 0 0 1015.9 1015.8 0.0
20/04:30am 19.1 19.4 13.5 70 3.2 SW 4 7 2 4 1015.9 1015.8 0.0
20/04:00am 19.3 18.8 13.7 70 3.2 SSW 9 15 5 8 1015.7 1015.6 0.0
20/03:30am 19.5 18.5 13.4 68 3.5 WSW 11 15 6 8 1015.8 1015.7 0.0
20/03:00am 19.6 18.2 13.5 68 3.5 SW 13 15 7 8 1016.0 1015.9 0.0
20/02:30am 19.7 18.9 14.1 70 3.2 SW 11 15 6 8 1016.1 1016.0 0.0
20/02:00am 19.9 19.2 14.3 70 3.2 SW 11 15 6 8 1016.2 1016.1 0.0
20/01:30am 20.0 19.5 13.9 68 3.5 W 9 11 5 6 1016.5 1016.4 0.0
20/01:00am 19.9 19.5 14.0 69 3.4 WSW 9 13 5 7 1016.6 1016.5 0.0
20/12:30am 20.1 19.5 14.5 70 3.3 SW 11 13 6 7 1016.8 1016.8 0.0
20/12:00am 20.1 18.9 14.0 68 3.5 SW 13 17 7 9 1016.9 1016.9 0.0
 
Date/Time
EDT
Temp
°C
App
Temp
°C
Dew
Point
Rel
Hum
%
Delta-T
°C
Wind Press
QNH
hPa
Press
MSL
hPa
Rain
since 9 am
mm
Dir
 
Spd
km/h
Gust
km/h
Spd
kts
Gust
kts
19/11:30pm 20.2 19.5 14.3 69 3.4 SW 11 15 6 8 1017.0 1017.0 0.0
19/11:00pm 20.2 19.1 14.3 69 3.4 SW 13 17 7 9 1017.0 1017.0 0.0
19/10:30pm 20.5 19.4 14.4 68 3.6 SW 13 17 7 9 1017.0 1017.0 0.0
19/10:00pm 20.7 19.7 14.6 68 3.6 SW 13 17 7 9 1016.7 1016.6 0.0
19/09:30pm 20.8 20.2 14.5 67 3.7 SSW 11 15 6 8 1016.2 1016.1 0.0
19/09:00pm 20.9 20.3 14.5 67 3.7 SSW 11 17 6 9 1015.8 1015.7 0.0
19/08:30pm 20.9 19.8 14.3 66 3.8 S 13 17 7 9 1015.3 1015.2 0.0
19/08:00pm 21.1 19.2 14.3 65 4.0 S 17 22 9 12 1014.7 1014.6 0.0
19/07:30pm 21.3 19.5 14.5 65 4.0 SSE 17 24 9 13 1014.1 1014.0 0.0
19/07:00pm 21.4 19.7 14.6 65 4.0 SSE 17 28 9 15 1013.6 1013.5 0.0
19/06:30pm 21.6 18.9 14.5 64 4.2 SSE 22 30 12 16 1012.8 1012.7 0.0
19/06:00pm 22.2 19.8 14.3 61 4.6 SE 20 28 11 15 1012.3 1012.2 0.0
19/05:30pm 23.2 21.1 15.3 61 4.7 SE 20 30 11 16 1012.0 1011.9 0.0
19/05:00pm 22.5 18.8 13.8 58 5.1 SSE 26 35 14 19 1011.6 1011.5 0.0
19/04:30pm 22.4 18.2 13.5 57 5.1 SSE 28 37 15 20 1011.4 1011.3 0.0
19/04:00pm 22.8 18.7 13.8 57 5.2 SE 28 37 15 20 1011.3 1011.2 0.0
19/03:30pm 23.9 19.9 16.2 62 4.7 SSE 32 41 17 22 1011.0 1010.9 0.0
19/03:00pm 23.6 19.3 14.3 56 5.5 SSE 30 41 16 22 1011.1 1011.0 0.0
19/02:30pm 24.2 20.2 15.1 56 5.4 SE 30 43 16 23 1011.0 1010.9 0.0
19/02:00pm 23.6 19.1 14.9 58 5.2 SE 32 41 17 22 1011.5 1011.4 0.0
19/01:33pm 24.0 20.3 15.0 57 5.4 SSE 28 48 15 26 1011.6 1011.5 0.0
19/01:30pm 24.1 19.7 14.2 54 5.8 SSE 30 41 16 22 1011.6 1011.5 0.0
19/01:00pm 23.1 18.4 14.4 58 5.1 SSE 32 43 17 23 1011.6 1011.5 0.0
19/12:30pm 24.1 20.6 14.5 55 5.7 SSE 26 32 14 17 1011.7 1011.6 0.0
19/12:00pm 24.6 21.6 14.7 54 5.9 SSE 24 35 13 19 1011.6 1011.5 0.0
19/11:30am 24.0 20.7 15.0 57 5.4 SSE 26 37 14 20 1011.6 1011.5 0.0
19/11:00am 24.1 21.2 15.1 57 5.4 S 24 33 13 18 1011.5 1011.4 0.0
19/10:30am 24.9 21.9 15.8 57 5.5 S 26 35 14 19 1011.4 1011.3 0.0
19/10:00am 23.7 20.1 15.2 59 5.1 S 28 37 15 20 1011.2 1011.1 0.0
19/09:30am 23.6 20.4 15.4 60 4.9 S 26 39 14 21 1011.1 1011.0 0.0
19/09:00am 24.2 21.3 15.1 56 5.5 SSW 24 32 13 17 1010.6 1010.5 0.4
19/08:30am 24.5 20.5 11.8 45 7.2 SSW 24 37 13 20 1010.0 1009.9 0.4
19/08:00am 24.1 20.8 9.7 40 7.9 SW 17 28 9 15 1009.3 1009.2 0.4
19/07:30am 22.4 21.1 11.2 49 6.2 W 9 15 5 8 1008.5 1008.4 0.4
19/07:00am 20.2 19.2 12.2 60 4.5 WNW 9 15 5 8 1008.0 1007.9 0.4
19/06:30am 19.4 18.1 11.4 60 4.4 WNW 9 11 5 6 1007.6 1007.5 0.4
19/06:00am 15.3 14.8 12.6 84 1.5 NNW 7 9 4 5 1007.3 1007.2 0.4
19/05:30am 18.5 17.9 12.3 67 3.4 WNW 7 11 4 6 1006.9 1006.8 0.4
19/05:00am 19.3 17.8 13.0 67 3.6 W 13 15 7 8 1006.5 1006.4 0.4
19/04:30am 19.9 18.0 13.1 65 3.9 W 15 19 8 10 1006.4 1006.3 0.4
19/04:00am 19.6 19.2 14.0 70 3.2 WSW 9 11 5 6 1006.1 1006.0 0.4
19/03:30am 19.8 19.2 14.6 72 3.0 W 11 15 6 8 1006.0 1005.9 0.4
19/03:00am 19.6 19.8 15.7 78 2.3 W 9 13 5 7 1006.1 1006.0 0.4
19/02:30am 19.4 19.8 16.4 83 1.8 WNW 9 11 5 6 1006.0 1005.9 0.4
19/02:00am 19.6 20.7 17.9 90 1.0 WNW 9 9 5 5 1006.2 1006.1 0.4
19/01:30am 20.1 22.0 18.9 93 0.8 WNW 7 9 4 5 1006.1 1006.0 0.4
19/01:00am 20.8 22.6 19.6 93 0.8 W 9 13 5 7 1006.3 1006.2 0.4
19/12:30am 21.4 23.2 20.4 94 0.6 WSW 11 15 6 8 1006.4 1006.3 0.4
19/12:00am 21.6 24.0 20.8 95 0.5 W 9 11 5 6 1006.4 1006.3 0.4
 
Date/Time
EDT
Temp
°C
App
Temp
°C
Dew
Point
Rel
Hum
%
Delta-T
°C
Wind Press
QNH
hPa
Press
MSL
hPa
Rain
since 9 am
mm
Dir
 
Spd
km/h
Gust
km/h
Spd
kts
Gust
kts
18/11:30pm 22.0 25.0 21.3 96 0.5 W 7 11 4 6 1006.6 1006.5 0.4
18/11:00pm 22.3 25.1 21.6 96 0.5 W 9 11 5 6 1006.6 1006.5 0.4
18/10:30pm 22.6 25.7 22.1 97 0.3 W 9 11 5 6 1006.5 1006.4 0.4

Other Formats:

Comma delimited format used in spreadsheet applications
http://www.bom.gov.au/fwo/IDN60801/IDN60801.95784.axf

JavaScript Object Notation format (JSON) in row-major order
http://www.bom.gov.au/fwo/IDN60801/IDN60801.95784.json